createdAt,value
2019-04-26T00:01:00.149Z,52.50
2019-04-26T00:02:09.880Z,52.78
2019-04-26T00:03:16.470Z,52.81
2019-04-26T00:04:20.703Z,52.93
2019-04-26T00:05:35.051Z,52.90
2019-04-26T00:06:33.730Z,52.71
2019-04-26T00:07:37.976Z,52.66
2019-04-26T00:08:44.049Z,52.58
2019-04-26T00:09:48.513Z,52.54
2019-04-26T00:10:54.457Z,52.42
2019-04-26T00:12:16.416Z,52.54
2019-04-26T00:13:34.448Z,52.59
2019-04-26T00:14:40.492Z,52.43
2019-04-26T00:15:49.972Z,52.36
2019-04-26T00:16:55.833Z,52.39
2019-04-26T00:18:02.284Z,52.45
2019-04-26T00:19:06.592Z,52.35
2019-04-26T00:20:12.030Z,52.59
2019-04-26T00:21:17.071Z,52.58
2019-04-26T00:22:22.712Z,52.75
2019-04-26T00:23:27.005Z,52.74
2019-04-26T00:24:31.542Z,52.94
2019-04-26T00:25:35.933Z,53.23
2019-04-26T00:26:40.260Z,53.35
2019-04-26T00:27:44.499Z,53.25
2019-04-26T00:28:48.720Z,53.49
2019-04-26T00:29:52.911Z,53.39
2019-04-26T00:30:57.225Z,53.19
2019-04-26T00:32:01.423Z,52.97
2019-04-26T00:33:05.721Z,52.96
2019-04-26T00:34:10.972Z,52.92
2019-04-26T00:35:15.826Z,53.11
2019-04-26T00:36:20.810Z,53.15
2019-04-26T00:37:25.102Z,53.11
2019-04-26T00:38:29.509Z,53.14
2019-04-26T00:39:33.676Z,52.99
2019-04-26T00:40:38.082Z,53.25
2019-04-26T00:41:42.255Z,53.25
2019-04-26T00:42:46.530Z,53.08
2019-04-26T00:43:50.784Z,53.08
2019-04-26T00:44:55.021Z,52.93
2019-04-26T00:45:59.431Z,53.15
2019-04-26T00:47:04.749Z,52.99
2019-04-26T00:48:09.292Z,52.99
2019-04-26T00:49:14.065Z,53.20
2019-04-26T00:50:19.249Z,53.09
2019-04-26T00:51:23.558Z,53.29
2019-04-26T00:52:27.959Z,53.20
2019-04-26T00:53:32.751Z,52.80
2019-04-26T00:54:36.987Z,52.99
2019-04-26T00:55:41.663Z,53.11
2019-04-26T00:56:45.948Z,53.15
2019-04-26T00:57:50.187Z,53.30
2019-04-26T00:58:54.805Z,53.44
2019-04-26T00:59:58.929Z,53.73
2019-04-26T01:01:03.167Z,53.48
2019-04-26T01:02:09.109Z,53.75
2019-04-26T01:03:15.192Z,53.79
2019-04-26T01:04:20.937Z,53.73
2019-04-26T01:05:27.448Z,53.74
2019-04-26T01:06:32.862Z,53.90
2019-04-26T01:07:37.268Z,53.92
2019-04-26T01:08:41.649Z,53.94
2019-04-26T01:09:45.791Z,53.94
2019-04-26T01:10:50.058Z,53.81
2019-04-26T01:11:54.265Z,53.74
2019-04-26T01:12:58.825Z,53.90
2019-04-26T01:14:03.067Z,53.93
2019-04-26T01:15:07.646Z,54.14
2019-04-26T01:16:12.160Z,54.29
2019-04-26T01:17:17.594Z,54.58
2019-04-26T01:18:22.357Z,54.33
2019-04-26T01:19:26.703Z,54.43
2019-04-26T01:20:30.906Z,54.41
2019-04-26T01:21:38.515Z,54.36
2019-04-26T01:22:46.060Z,54.66
2019-04-26T01:23:51.313Z,54.81
2019-04-26T01:24:56.758Z,54.66
2019-04-26T01:26:04.132Z,54.83
2019-04-26T01:27:08.317Z,54.69
2019-04-26T01:28:30.869Z,54.78
2019-04-26T01:29:35.105Z,54.89
2019-04-26T01:30:39.392Z,54.89
2019-04-26T01:31:47.892Z,55.33
2019-04-26T01:32:53.815Z,55.37
2019-04-26T01:33:58.167Z,55.31
2019-04-26T01:35:02.413Z,55.23
2019-04-26T01:36:13.343Z,55.17
2019-04-26T01:37:13.035Z,55.24
2019-04-26T01:38:17.367Z,55.14
2019-04-26T01:39:23.686Z,55.36
2019-04-26T01:40:30.300Z,55.18
2019-04-26T01:41:44.749Z,55.03
2019-04-26T01:42:57.101Z,55.07
2019-04-26T01:44:05.712Z,55.01
2019-04-26T01:45:17.816Z,54.99
2019-04-26T01:46:35.837Z,54.96
2019-04-26T01:47:40.111Z,55.28
2019-04-26T01:48:58.496Z,55.40
2019-04-26T01:50:02.666Z,55.47
2019-04-26T01:51:06.998Z,55.16
2019-04-26T01:52:11.287Z,55.04
2019-04-26T01:53:15.600Z,55.36
2019-04-26T01:54:23.094Z,55.40
2019-04-26T01:55:29.183Z,55.55
2019-04-26T01:56:35.201Z,55.73
2019-04-26T01:57:39.488Z,56.00
2019-04-26T01:58:43.886Z,55.82
2019-04-26T01:59:51.435Z,55.89
2019-04-26T02:01:02.954Z,55.75
2019-04-26T02:02:27.752Z,55.58
2019-04-26T02:03:31.943Z,55.46
2019-04-26T02:04:40.873Z,55.50
2019-04-26T02:05:45.210Z,55.48
2019-04-26T02:06:49.448Z,55.50
2019-04-26T02:07:53.940Z,55.60
2019-04-26T02:08:59.745Z,55.79
2019-04-26T02:10:07.426Z,55.74
2019-04-26T02:11:11.656Z,55.86
2019-04-26T02:12:15.839Z,55.86
2019-04-26T02:13:20.080Z,55.74
2019-04-26T02:14:26.908Z,55.54
2019-04-26T02:15:33.480Z,55.54
2019-04-26T02:16:37.825Z,55.58
2019-04-26T02:17:42.219Z,55.44
2019-04-26T02:18:46.385Z,55.70
2019-04-26T02:19:50.629Z,55.33
2019-04-26T02:21:07.290Z,56.37
2019-04-26T02:22:25.877Z,56.62
2019-04-26T02:23:34.926Z,56.50
2019-04-26T02:24:40.790Z,56.60
2019-04-26T02:25:44.960Z,56.65
2019-04-26T02:26:50.226Z,56.43
2019-04-26T02:27:54.421Z,56.60
2019-04-26T02:28:58.672Z,56.99
2019-04-26T02:30:03.219Z,57.06
2019-04-26T02:31:07.437Z,57.01
2019-04-26T02:32:11.636Z,56.78
2019-04-26T02:33:15.798Z,56.70
2019-04-26T02:34:19.980Z,56.75
2019-04-26T02:35:25.594Z,56.64
2019-04-26T02:36:50.175Z,56.42
2019-04-26T02:37:36.930Z,56.32
2019-04-26T02:38:43.020Z,56.27
2019-04-26T02:39:48.763Z,56.24
2019-04-26T02:40:52.917Z,56.20
2019-04-26T02:41:59.910Z,56.30
2019-04-26T02:43:04.582Z,56.17
2019-04-26T02:44:10.876Z,56.10
2019-04-26T02:45:28.303Z,56.03
2019-04-26T02:46:38.076Z,55.93
2019-04-26T02:47:44.020Z,55.97
2019-04-26T02:49:06.402Z,55.87
2019-04-26T02:50:17.858Z,55.83
2019-04-26T02:51:29.144Z,55.98
2019-04-26T02:52:38.763Z,56.06
2019-04-26T02:53:54.038Z,56.10
2019-04-26T02:55:13.579Z,56.17
2019-04-26T02:56:24.784Z,56.26
2019-04-26T02:57:36.475Z,56.10
2019-04-26T02:58:59.227Z,55.67
2019-04-26T03:00:09.041Z,55.67
2019-04-26T03:01:13.492Z,55.82
2019-04-26T03:02:24.384Z,55.94
2019-04-26T03:03:30.529Z,55.90
2019-04-26T03:04:36.423Z,55.83
2019-04-26T03:05:40.942Z,55.92
2019-04-26T03:07:01.695Z,55.83
2019-04-26T03:07:57.836Z,55.96
2019-04-26T03:09:02.675Z,55.93
2019-04-26T03:10:08.600Z,55.74
2019-04-26T03:11:17.578Z,55.65
2019-04-26T03:12:24.409Z,55.46
2019-04-26T03:13:36.320Z,55.30
2019-04-26T03:14:44.772Z,55.23
2019-04-26T03:15:55.953Z,55.26
2019-04-26T03:17:21.970Z,55.19
2019-04-26T03:18:31.735Z,55.10
2019-04-26T03:19:56.578Z,55.08
2019-04-26T03:21:11.887Z,55.19
2019-04-26T03:22:39.436Z,55.22
2019-04-26T03:23:59.087Z,55.18
2019-04-26T03:25:16.231Z,55.21
2019-04-26T03:26:44.601Z,55.15
2019-04-26T03:28:10.369Z,55.35
2019-04-26T03:29:26.818Z,55.13
2019-04-26T03:30:39.060Z,55.26
2019-04-26T03:32:18.624Z,55.26
2019-04-26T03:33:43.025Z,55.31
2019-04-26T03:35:01.668Z,55.35
2019-04-26T03:36:42.120Z,55.78
2019-04-26T03:37:50.683Z,55.95
2019-04-26T03:39:08.257Z,56.40
2019-04-26T03:40:44.502Z,56.68
2019-04-26T03:42:04.987Z,56.67
2019-04-26T03:43:22.007Z,56.84
2019-04-26T03:44:40.116Z,56.79
2019-04-26T03:46:03.436Z,56.77
2019-04-26T03:47:10.574Z,56.58
2019-04-26T03:48:24.370Z,56.54
2019-04-26T03:49:36.180Z,56.50
2019-04-26T03:50:50.916Z,56.39
2019-04-26T03:52:31.904Z,56.37
2019-04-26T03:53:44.032Z,56.18
2019-04-26T03:54:51.696Z,56.37
2019-04-26T03:56:08.180Z,56.28
2019-04-26T03:57:20.082Z,56.26
2019-04-26T03:58:31.771Z,56.16
2019-04-26T03:59:47.361Z,56.22
2019-04-26T04:00:53.289Z,56.24
2019-04-26T04:02:11.177Z,56.18
2019-04-26T04:03:26.628Z,56.34
2019-04-26T04:04:41.632Z,56.45
2019-04-26T04:05:48.965Z,56.49
2019-04-26T04:07:03.616Z,56.61
2019-04-26T04:08:01.138Z,56.59
2019-04-26T04:09:09.834Z,56.62
2019-04-26T04:10:26.042Z,56.61
2019-04-26T04:12:09.594Z,56.58
2019-04-26T04:13:04.425Z,56.44
2019-04-26T04:14:27.251Z,56.75
2019-04-26T04:15:48.494Z,56.76
2019-04-26T04:17:15.680Z,56.89
2019-04-26T04:18:27.412Z,56.90
2019-04-26T04:19:55.266Z,57.35
2019-04-26T04:21:18.619Z,57.50
2019-04-26T04:22:22.795Z,57.88
2019-04-26T04:23:32.967Z,58.17
2019-04-26T04:24:41.630Z,58.35
2019-04-26T04:25:49.239Z,58.62
2019-04-26T04:27:14.183Z,58.49
2019-04-26T04:28:45.998Z,58.65
2019-04-26T04:29:55.577Z,58.97
2019-04-26T04:31:27.049Z,58.33
2019-04-26T04:32:34.615Z,58.53
2019-04-26T04:33:49.465Z,58.80
2019-04-26T04:34:54.182Z,59.08
2019-04-26T04:36:01.199Z,59.50
2019-04-26T04:37:05.517Z,59.38
2019-04-26T04:38:34.027Z,59.31
2019-04-26T04:39:53.746Z,59.53
2019-04-26T04:41:18.745Z,59.68
2019-04-26T04:42:39.414Z,59.69
2019-04-26T04:44:09.528Z,59.50
2019-04-26T04:45:44.408Z,59.59
2019-04-26T04:46:56.184Z,60.01
2019-04-26T04:48:27.742Z,60.33
2019-04-26T04:49:52.736Z,59.88
2019-04-26T04:51:11.773Z,60.13
2019-04-26T04:52:26.819Z,60.50
2019-04-26T04:53:57.563Z,60.63
2019-04-26T04:55:29.669Z,60.58
2019-04-26T04:56:43.659Z,60.83
2019-04-26T04:57:54.216Z,60.67
2019-04-26T04:59:10.364Z,60.59
2019-04-26T05:00:40.347Z,60.77
2019-04-26T05:02:07.493Z,60.55
2019-04-26T05:03:30.990Z,60.62
2019-04-26T05:04:38.521Z,60.53
2019-04-26T05:06:06.614Z,60.23
2019-04-26T05:07:16.370Z,60.44
2019-04-26T05:08:35.624Z,60.42
2019-04-26T05:09:43.960Z,60.41
2019-04-26T05:11:09.616Z,60.47
2019-04-26T05:12:26.201Z,60.63
2019-04-26T05:13:42.268Z,60.59
2019-04-26T05:14:59.024Z,60.80
2019-04-26T05:16:20.133Z,60.68
2019-04-26T05:17:49.900Z,60.79
2019-04-26T05:19:27.789Z,60.79
2019-04-26T05:20:47.011Z,60.81
2019-04-26T05:22:15.589Z,61.11
2019-04-26T05:23:23.145Z,61.09
2019-04-26T05:25:02.142Z,60.94
2019-04-26T05:26:37.114Z,61.31
2019-04-26T05:28:06.751Z,61.59
2019-04-26T05:29:33.917Z,61.53
2019-04-26T05:31:07.304Z,61.33
2019-04-26T05:32:20.562Z,61.85
2019-04-26T05:33:27.476Z,61.76
2019-04-26T05:34:46.259Z,62.05
2019-04-26T05:36:11.564Z,61.91
2019-04-26T05:37:38.566Z,62.01
2019-04-26T05:38:49.417Z,61.98
2019-04-26T05:40:11.917Z,61.83
2019-04-26T05:41:55.973Z,61.71
2019-04-26T05:43:21.813Z,62.19
2019-04-26T05:44:43.044Z,62.18
2019-04-26T05:46:14.279Z,62.45
2019-04-26T05:47:31.615Z,62.42
2019-04-26T05:48:53.577Z,62.28
2019-04-26T05:50:30.246Z,62.77
2019-04-26T05:51:53.761Z,62.49
2019-04-26T05:53:25.324Z,62.64
2019-04-26T05:54:49.790Z,62.54
2019-04-26T05:56:17.749Z,62.45
2019-04-26T05:57:44.617Z,62.52
2019-04-26T05:59:08.856Z,62.62
2019-04-26T06:00:31.860Z,62.36
2019-04-26T06:02:13.367Z,62.40
2019-04-26T06:03:28.105Z,62.51
2019-04-26T06:05:06.694Z,63.00
2019-04-26T06:06:33.762Z,62.90
2019-04-26T06:08:30.384Z,62.82
2019-04-26T06:09:34.526Z,62.61
2019-04-26T06:10:46.242Z,63.03
2019-04-26T06:12:16.298Z,62.93
2019-04-26T06:13:31.381Z,62.82
2019-04-26T06:14:52.952Z,62.99
2019-04-26T06:16:38.066Z,62.75
2019-04-26T06:17:55.817Z,62.61
2019-04-26T06:19:19.606Z,62.56
2019-04-26T06:20:39.924Z,62.63
2019-04-26T06:22:06.489Z,62.71
2019-04-26T06:23:16.877Z,62.59
2019-04-26T06:24:35.870Z,62.74
2019-04-26T06:26:16.650Z,62.33
2019-04-26T06:27:37.677Z,62.70
2019-04-26T06:29:08.051Z,62.90
2019-04-26T06:30:15.293Z,62.92
2019-04-26T06:31:31.162Z,62.52
2019-04-26T06:33:00.351Z,62.54
2019-04-26T06:34:07.206Z,63.04
2019-04-26T06:35:20.603Z,63.06
2019-04-26T06:36:26.487Z,63.39
2019-04-26T06:37:57.813Z,63.13
2019-04-26T06:39:11.780Z,63.03
2019-04-26T06:40:25.203Z,62.90
2019-04-26T06:42:00.790Z,63.03
2019-04-26T06:43:08.227Z,62.80
2019-04-26T06:44:23.440Z,62.70
2019-04-26T06:45:34.851Z,62.87
2019-04-26T06:46:49.664Z,62.50
2019-04-26T06:48:09.444Z,62.57
2019-04-26T06:49:27.459Z,62.83
2019-04-26T06:51:07.704Z,63.03
2019-04-26T06:52:20.677Z,63.17
2019-04-26T06:53:40.389Z,62.37
2019-04-26T06:55:04.263Z,62.59
2019-04-26T06:56:15.969Z,62.71
2019-04-26T06:57:27.814Z,62.43
2019-04-26T06:59:07.890Z,62.40
2019-04-26T07:00:17.398Z,62.23
2019-04-26T07:01:30.752Z,61.88
2019-04-26T07:02:40.863Z,61.77
2019-04-26T07:04:06.170Z,61.67
2019-04-26T07:05:22.714Z,61.60
2019-04-26T07:06:35.180Z,61.52
2019-04-26T07:07:50.493Z,61.86
2019-04-26T07:08:59.380Z,61.93
2019-04-26T07:10:09.980Z,62.11
2019-04-26T07:11:34.592Z,62.34
2019-04-26T07:12:54.866Z,62.34
2019-04-26T07:14:31.824Z,62.12
2019-04-26T07:15:42.470Z,62.37
2019-04-26T07:16:53.942Z,62.53
2019-04-26T07:18:10.767Z,62.80
2019-04-26T07:19:31.811Z,62.85
2019-04-26T07:20:46.592Z,62.77
2019-04-26T07:22:04.105Z,62.65
2019-04-26T07:23:37.695Z,62.04
2019-04-26T07:25:11.274Z,61.90
2019-04-26T07:26:34.090Z,61.74
2019-04-26T07:27:44.673Z,62.56
2019-04-26T07:29:16.052Z,62.55
2019-04-26T07:30:29.552Z,62.68
2019-04-26T07:31:59.476Z,62.23
2019-04-26T07:33:09.903Z,62.14
2019-04-26T07:34:35.278Z,62.37
2019-04-26T07:35:59.186Z,62.37
2019-04-26T07:37:40.032Z,62.47
2019-04-26T07:39:19.489Z,62.29
2019-04-26T07:40:53.317Z,62.69
2019-04-26T07:42:07.971Z,62.92
2019-04-26T07:43:32.443Z,63.45
2019-04-26T07:45:08.965Z,63.31
2019-04-26T07:46:33.488Z,63.08
2019-04-26T07:48:16.658Z,63.05
2019-04-26T07:50:00.165Z,63.41
2019-04-26T07:51:29.793Z,63.78
2019-04-26T07:52:55.775Z,64.37
2019-04-26T07:54:06.703Z,64.49
2019-04-26T07:55:20.115Z,64.42
2019-04-26T07:56:56.607Z,64.85
2019-04-26T07:58:24.127Z,64.66
2019-04-26T08:00:00.501Z,64.23
2019-04-26T08:01:34.142Z,63.78
2019-04-26T08:02:56.619Z,63.68
2019-04-26T08:04:07.729Z,63.39
2019-04-26T08:05:22.162Z,63.64
2019-04-26T08:06:32.027Z,63.94
2019-04-26T08:07:39.503Z,63.93
2019-04-26T08:08:55.771Z,63.84
2019-04-26T08:10:06.201Z,63.61
2019-04-26T08:11:23.357Z,63.36
2019-04-26T08:12:29.237Z,63.27
2019-04-26T08:13:35.977Z,63.11
2019-04-26T08:14:47.684Z,63.29
2019-04-26T08:16:15.555Z,63.26
2019-04-26T08:17:34.862Z,63.36
2019-04-26T08:18:43.697Z,63.42
2019-04-26T08:19:57.590Z,63.37
2019-04-26T08:21:02.413Z,63.18
2019-04-26T08:22:18.213Z,63.00
2019-04-26T08:23:37.219Z,62.68
2019-04-26T08:24:27.911Z,62.66
2019-04-26T08:25:31.410Z,62.81
2019-04-26T08:26:35.611Z,62.45
2019-04-26T08:27:39.806Z,62.49
2019-04-26T08:28:44.059Z,62.25
2019-04-26T08:29:50.577Z,62.52
2019-04-26T08:30:55.553Z,62.29
2019-04-26T08:31:59.816Z,62.84
2019-04-26T08:33:07.542Z,62.78
2019-04-26T08:34:12.421Z,62.77
2019-04-26T08:35:22.223Z,62.52
2019-04-26T08:36:27.450Z,62.37
2019-04-26T08:37:46.822Z,62.40
2019-04-26T08:38:52.633Z,62.44
2019-04-26T08:39:56.989Z,62.51
2019-04-26T08:41:04.842Z,62.21
2019-04-26T08:42:12.074Z,62.68
2019-04-26T08:43:31.959Z,62.62
2019-04-26T08:44:52.795Z,62.36
2019-04-26T08:46:03.046Z,62.14
2019-04-26T08:47:24.469Z,62.55
2019-04-26T08:48:29.346Z,62.33
2019-04-26T08:49:42.431Z,62.25
2019-04-26T08:50:48.440Z,62.43
2019-04-26T08:51:55.986Z,62.29
2019-04-26T08:52:58.594Z,62.35
2019-04-26T08:54:03.498Z,62.26
2019-04-26T08:55:09.407Z,62.03
2019-04-26T08:56:15.554Z,62.12
2019-04-26T08:57:20.864Z,61.99
2019-04-26T08:58:25.181Z,61.99
2019-04-26T08:59:32.617Z,61.91
2019-04-26T09:00:41.303Z,62.54
2019-04-26T09:01:47.172Z,62.33
2019-04-26T09:03:11.756Z,62.08
2019-04-26T09:04:17.845Z,62.00
2019-04-26T09:05:42.019Z,62.06
2019-04-26T09:06:52.382Z,62.22
2019-04-26T09:07:59.230Z,62.33
2019-04-26T09:09:09.257Z,62.52
2019-04-26T09:10:15.724Z,62.35
2019-04-26T09:11:25.766Z,62.29
2019-04-26T09:12:26.010Z,62.43
2019-04-26T09:13:33.195Z,62.31
2019-04-26T09:14:37.393Z,62.24
2019-04-26T09:15:53.814Z,62.44
2019-04-26T09:16:57.994Z,62.34
2019-04-26T09:18:02.259Z,62.62
2019-04-26T09:19:06.523Z,62.41
2019-04-26T09:20:10.785Z,62.02
2019-04-26T09:21:19.321Z,61.86
2019-04-26T09:22:27.921Z,61.75
2019-04-26T09:23:51.999Z,61.86
2019-04-26T09:24:59.416Z,62.04
2019-04-26T09:26:12.477Z,61.81
2019-04-26T09:27:24.307Z,61.49
2019-04-26T09:28:30.143Z,61.54
2019-04-26T09:29:36.009Z,61.41
2019-04-26T09:30:42.420Z,61.53
2019-04-26T09:31:55.563Z,61.59
2019-04-26T09:33:19.405Z,61.41
2019-04-26T09:34:25.310Z,61.90
2019-04-26T09:35:29.642Z,62.33
2019-04-26T09:36:33.891Z,62.67
2019-04-26T09:37:38.070Z,63.19
2019-04-26T09:38:42.272Z,62.63
2019-04-26T09:39:46.479Z,62.26
2019-04-26T09:40:52.750Z,62.43
2019-04-26T09:42:10.655Z,62.19
2019-04-26T09:43:26.680Z,62.34
2019-04-26T09:44:50.602Z,62.10
2019-04-26T09:46:02.631Z,62.37
2019-04-26T09:47:11.469Z,61.31
2019-04-26T09:48:23.009Z,61.76
2019-04-26T09:49:37.354Z,61.47
2019-04-26T09:50:42.262Z,60.87
2019-04-26T09:51:46.542Z,60.41
2019-04-26T09:52:58.102Z,60.78
2019-04-26T09:54:01.380Z,60.79
2019-04-26T09:55:06.491Z,60.52
2019-04-26T09:56:10.928Z,60.40
2019-04-26T09:57:16.170Z,60.61
2019-04-26T09:58:20.654Z,60.40
2019-04-26T09:59:25.907Z,60.91
2019-04-26T10:00:30.951Z,61.11
2019-04-26T10:01:36.749Z,61.33
2019-04-26T10:02:40.923Z,61.16
2019-04-26T10:03:45.152Z,60.37
2019-04-26T10:04:49.339Z,60.45
2019-04-26T10:05:55.936Z,60.59
2019-04-26T10:07:03.232Z,60.44
2019-04-26T10:08:08.395Z,59.71
2019-04-26T10:09:17.143Z,59.77
2019-04-26T10:10:23.007Z,60.30
2019-04-26T10:11:28.195Z,60.27
2019-04-26T10:12:34.010Z,60.16
2019-04-26T10:13:45.762Z,59.71
2019-04-26T10:15:03.649Z,59.71
2019-04-26T10:16:24.766Z,59.21
2019-04-26T10:17:33.609Z,59.41
2019-04-26T10:18:39.608Z,59.66
2019-04-26T10:19:45.603Z,59.43
2019-04-26T10:20:49.923Z,59.81
2019-04-26T10:21:54.402Z,60.06
2019-04-26T10:22:58.651Z,59.98
2019-04-26T10:24:02.923Z,59.83
2019-04-26T10:25:15.915Z,59.30
2019-04-26T10:26:13.077Z,59.06
2019-04-26T10:27:17.457Z,59.43
2019-04-26T10:28:21.707Z,59.50
2019-04-26T10:29:26.735Z,59.49
2019-04-26T10:30:31.096Z,58.54
2019-04-26T10:31:35.268Z,57.92
2019-04-26T10:32:39.479Z,58.26
2019-04-26T10:33:44.818Z,58.02
2019-04-26T10:34:49.024Z,58.80
2019-04-26T10:35:56.717Z,58.87
2019-04-26T10:37:01.591Z,59.11
2019-04-26T10:38:05.426Z,58.53
2019-04-26T10:39:11.345Z,58.72
2019-04-26T10:40:15.671Z,58.59
2019-04-26T10:41:19.849Z,58.09
2019-04-26T10:42:24.370Z,58.18
2019-04-26T10:43:29.457Z,58.43
2019-04-26T10:44:35.714Z,58.24
2019-04-26T10:45:41.126Z,58.24
2019-04-26T10:46:55.403Z,58.35
2019-04-26T10:47:51.639Z,58.91
2019-04-26T10:49:02.686Z,59.08
2019-04-26T10:50:01.783Z,59.12
2019-04-26T10:51:07.290Z,59.12
2019-04-26T10:52:15.738Z,58.94
2019-04-26T10:53:25.557Z,58.96
2019-04-26T10:54:28.455Z,59.27
2019-04-26T10:55:46.497Z,58.63
2019-04-26T10:56:55.038Z,58.58
2019-04-26T10:58:10.377Z,58.74
2019-04-26T10:59:25.238Z,57.99
2019-04-26T11:00:43.206Z,59.18
2019-04-26T11:01:48.457Z,59.33
2019-04-26T11:02:54.271Z,58.63
2019-04-26T11:03:58.444Z,57.94
2019-04-26T11:05:02.826Z,58.38
2019-04-26T11:06:07.166Z,58.60
2019-04-26T11:07:11.337Z,58.58
2019-04-26T11:08:15.564Z,59.02
2019-04-26T11:09:19.747Z,58.99
2019-04-26T11:10:24.509Z,58.10
2019-04-26T11:11:28.864Z,58.35
2019-04-26T11:12:33.158Z,58.36
2019-04-26T11:13:37.586Z,58.31
2019-04-26T11:14:42.057Z,58.43
2019-04-26T11:15:46.715Z,57.85
2019-04-26T11:16:51.159Z,58.08
2019-04-26T11:17:55.323Z,57.95
2019-04-26T11:19:01.141Z,57.50
2019-04-26T11:20:10.469Z,57.62
2019-04-26T11:21:16.423Z,57.73
2019-04-26T11:22:28.919Z,57.15
2019-04-26T11:23:25.801Z,57.46
2019-04-26T11:24:30.106Z,57.23
2019-04-26T11:25:34.367Z,56.95
2019-04-26T11:26:38.742Z,57.36
2019-04-26T11:27:44.008Z,57.57
2019-04-26T11:28:51.312Z,56.81
2019-04-26T11:29:55.009Z,57.44
2019-04-26T11:31:01.492Z,57.17
2019-04-26T11:32:05.504Z,57.64
2019-04-26T11:33:11.144Z,57.91
2019-04-26T11:34:19.068Z,58.19
2019-04-26T11:35:22.526Z,57.80
2019-04-26T11:36:26.774Z,57.31
2019-04-26T11:37:31.216Z,56.30
2019-04-26T11:38:35.385Z,56.80
2019-04-26T11:39:40.579Z,56.62
2019-04-26T11:40:49.876Z,56.76
2019-04-26T11:41:51.622Z,56.73
2019-04-26T11:42:55.945Z,56.81
2019-04-26T11:44:00.210Z,57.64
2019-04-26T11:45:14.733Z,57.89
2019-04-26T11:46:17.021Z,57.46
2019-04-26T11:47:21.236Z,57.36
2019-04-26T11:48:29.098Z,57.48
2019-04-26T11:49:31.773Z,57.01
2019-04-26T11:50:35.946Z,56.65
2019-04-26T11:51:40.295Z,56.73
2019-04-26T11:52:44.541Z,57.35
2019-04-26T11:53:49.705Z,57.35
2019-04-26T11:54:55.123Z,57.11
2019-04-26T11:56:00.263Z,57.44
2019-04-26T11:57:08.187Z,56.63
2019-04-26T11:58:11.895Z,56.76
2019-04-26T11:59:16.122Z,56.32
2019-04-26T12:00:27.983Z,56.54
2019-04-26T12:01:32.225Z,56.16
2019-04-26T12:02:38.165Z,55.63
2019-04-26T12:03:44.068Z,55.97
2019-04-26T12:04:53.721Z,56.15
2019-04-26T12:06:00.430Z,55.98
2019-04-26T12:07:15.294Z,55.64
2019-04-26T12:08:21.169Z,55.72
2019-04-26T12:09:32.951Z,55.26
2019-04-26T12:10:40.580Z,55.29
2019-04-26T12:11:51.006Z,55.69
2019-04-26T12:12:51.871Z,55.78
2019-04-26T12:13:59.374Z,56.21
2019-04-26T12:15:04.051Z,55.86
2019-04-26T12:16:09.934Z,55.78
2019-04-26T12:17:14.356Z,55.75
2019-04-26T12:18:18.595Z,55.69
2019-04-26T12:19:22.882Z,55.64
2019-04-26T12:20:28.418Z,54.83
2019-04-26T12:21:34.135Z,54.45
2019-04-26T12:22:39.396Z,54.53
2019-04-26T12:23:44.878Z,55.02
2019-04-26T12:24:49.083Z,55.40
2019-04-26T12:25:53.507Z,55.47
2019-04-26T12:26:57.742Z,55.20
2019-04-26T12:28:05.725Z,55.47
2019-04-26T12:29:10.583Z,55.15
2019-04-26T12:30:13.692Z,54.81
2019-04-26T12:31:18.016Z,54.82
2019-04-26T12:32:22.860Z,54.66
2019-04-26T12:33:27.292Z,54.80
2019-04-26T12:34:31.465Z,54.95
2019-04-26T12:35:35.731Z,55.09
2019-04-26T12:36:39.988Z,55.24
2019-04-26T12:37:44.621Z,55.20
2019-04-26T12:38:48.752Z,55.44
2019-04-26T12:39:53.071Z,55.20
2019-04-26T12:40:57.265Z,55.06
2019-04-26T12:42:01.523Z,54.88
2019-04-26T12:43:05.695Z,54.73
2019-04-26T12:44:10.271Z,54.63
2019-04-26T12:45:16.675Z,55.12
2019-04-26T12:46:39.831Z,55.23
2019-04-26T12:47:45.615Z,55.41
2019-04-26T12:48:51.371Z,55.77
2019-04-26T12:49:58.974Z,55.76
2019-04-26T12:51:02.977Z,55.43
2019-04-26T12:52:07.239Z,55.33
2019-04-26T12:53:11.508Z,55.53
2019-04-26T12:54:15.779Z,55.40
2019-04-26T12:55:20.297Z,54.86
2019-04-26T12:56:26.555Z,54.56
2019-04-26T12:57:30.528Z,54.97
2019-04-26T12:58:34.796Z,54.73
2019-04-26T12:59:44.489Z,54.33
2019-04-26T13:00:53.659Z,54.56
2019-04-26T13:02:05.101Z,54.78
2019-04-26T13:03:00.417Z,54.44
2019-04-26T13:04:07.485Z,54.45
2019-04-26T13:05:14.635Z,54.69
2019-04-26T13:06:17.934Z,54.40
2019-04-26T13:07:24.536Z,54.22
2019-04-26T13:08:29.083Z,54.41
2019-04-26T13:09:34.887Z,54.41
2019-04-26T13:10:44.951Z,53.81
2019-04-26T13:11:52.789Z,53.04
2019-04-26T13:13:18.022Z,53.04
2019-04-26T13:14:32.964Z,53.55
2019-04-26T13:15:58.040Z,53.90
2019-04-26T13:17:06.994Z,53.69
2019-04-26T13:18:12.020Z,53.37
2019-04-26T13:19:19.979Z,53.51
2019-04-26T13:20:24.396Z,53.29
2019-04-26T13:21:28.247Z,52.93
2019-04-26T13:22:45.395Z,53.19
2019-04-26T13:23:38.491Z,54.12
2019-04-26T13:24:42.688Z,53.95
2019-04-26T13:25:46.999Z,54.09
2019-04-26T13:26:51.302Z,53.25
2019-04-26T13:27:55.560Z,53.58
2019-04-26T13:28:59.999Z,52.56
2019-04-26T13:30:06.836Z,51.99
2019-04-26T13:31:13.289Z,52.08
2019-04-26T13:32:18.128Z,52.73
2019-04-26T13:33:23.286Z,52.37
2019-04-26T13:34:28.785Z,51.67
2019-04-26T13:35:32.977Z,50.78
2019-04-26T13:36:37.220Z,51.63
2019-04-26T13:37:44.703Z,51.43
2019-04-26T13:38:47.788Z,51.47
2019-04-26T13:39:55.203Z,51.40
2019-04-26T13:40:59.847Z,51.43
2019-04-26T13:42:09.224Z,50.24
2019-04-26T13:43:09.907Z,50.86
2019-04-26T13:44:14.114Z,51.36
2019-04-26T13:45:25.941Z,50.85
2019-04-26T13:46:31.748Z,50.65
2019-04-26T13:47:37.567Z,50.90
2019-04-26T13:48:45.241Z,51.11
2019-04-26T13:49:52.332Z,51.01
2019-04-26T13:51:14.947Z,50.21
2019-04-26T13:52:19.142Z,50.46
2019-04-26T13:53:25.785Z,50.54
2019-04-26T13:54:29.665Z,50.33
2019-04-26T13:55:34.809Z,50.65
2019-04-26T13:56:39.228Z,50.58
2019-04-26T13:57:44.460Z,50.86
2019-04-26T13:58:49.325Z,51.25
2019-04-26T13:59:53.774Z,50.95
2019-04-26T14:00:58.024Z,50.79
2019-04-26T14:02:11.375Z,50.21
2019-04-26T14:03:08.363Z,50.42
2019-04-26T14:04:12.570Z,50.52
2019-04-26T14:05:17.031Z,50.42
2019-04-26T14:06:21.312Z,50.41
2019-04-26T14:07:26.050Z,50.43
2019-04-26T14:08:31.227Z,50.40
2019-04-26T14:09:35.399Z,50.15
2019-04-26T14:10:39.575Z,49.78
2019-04-26T14:11:43.752Z,49.84
2019-04-26T14:12:49.944Z,49.81
2019-04-26T14:13:55.419Z,49.96
2019-04-26T14:14:59.956Z,50.35
2019-04-26T14:16:04.511Z,49.85
2019-04-26T14:17:08.768Z,49.79
2019-04-26T14:18:13.125Z,49.78
2019-04-26T14:19:17.301Z,49.01
2019-04-26T14:20:23.347Z,48.64
2019-04-26T14:21:29.287Z,49.45
2019-04-26T14:22:37.031Z,49.05
2019-04-26T14:23:49.460Z,48.92
2019-04-26T14:25:01.834Z,48.73
2019-04-26T14:26:08.693Z,48.52
2019-04-26T14:27:15.273Z,48.42
2019-04-26T14:28:23.858Z,48.03
2019-04-26T14:29:28.592Z,48.67
2019-04-26T14:30:32.742Z,48.67
2019-04-26T14:31:36.964Z,48.97
2019-04-26T14:32:42.669Z,48.36
2019-04-26T14:33:47.087Z,48.66
2019-04-26T14:34:51.362Z,48.96
2019-04-26T14:35:55.655Z,49.03
2019-04-26T14:37:06.374Z,48.82
2019-04-26T14:38:06.341Z,48.39
2019-04-26T14:39:14.371Z,48.64
2019-04-26T14:40:17.718Z,48.83
2019-04-26T14:41:23.754Z,48.87
2019-04-26T14:42:34.423Z,48.88
2019-04-26T14:43:40.951Z,47.65
2019-04-26T14:44:49.138Z,47.90
2019-04-26T14:45:55.653Z,48.27
2019-04-26T14:46:56.803Z,48.21
2019-04-26T14:48:04.076Z,48.28
2019-04-26T14:49:06.604Z,48.56
2019-04-26T14:50:14.291Z,48.94
2019-04-26T14:51:18.613Z,48.80
2019-04-26T14:52:24.013Z,48.96
2019-04-26T14:53:32.090Z,48.78
2019-04-26T14:54:34.984Z,49.08
2019-04-26T14:55:39.335Z,48.78
2019-04-26T14:56:52.087Z,49.02
2019-04-26T14:57:51.369Z,48.70
2019-04-26T14:58:55.379Z,48.67
2019-04-26T15:00:00.133Z,48.48
2019-04-26T15:01:05.953Z,48.35
2019-04-26T15:02:13.271Z,48.59
2019-04-26T15:03:28.122Z,48.28
2019-04-26T15:04:45.797Z,48.36
2019-04-26T15:05:51.667Z,48.31
2019-04-26T15:06:58.015Z,48.35
2019-04-26T15:08:03.742Z,47.96
2019-04-26T15:09:18.001Z,48.00
2019-04-26T15:10:15.497Z,48.00
2019-04-26T15:11:19.764Z,47.68
2019-04-26T15:12:24.008Z,47.91